createdAt,value
2022-11-05T00:02:05.253Z,28.52
2022-11-05T00:07:47.675Z,31.68
2022-11-05T00:10:21.799Z,29.57
2022-11-05T00:13:10.493Z,30.45
2022-11-05T00:16:00.916Z,30.57
2022-11-05T00:18:30.309Z,31.05
2022-11-05T00:20:59.036Z,31.27
2022-11-05T00:23:46.547Z,33.38
2022-11-05T00:26:16.141Z,30.62
2022-11-05T00:28:45.629Z,30.97
2022-11-05T00:31:14.506Z,30.65
2022-11-05T00:33:45.097Z,29.10
2022-11-05T00:36:14.642Z,32.45
2022-11-05T00:38:43.800Z,29.57
2022-11-05T00:41:12.732Z,25.82
2022-11-05T00:44:00.486Z,29.07
2022-11-05T00:46:31.844Z,30.60
2022-11-05T00:49:19.829Z,30.82
2022-11-05T00:51:50.460Z,28.17
2022-11-05T00:54:20.334Z,28.17
2022-11-05T00:56:49.235Z,30.05
2022-11-05T00:59:19.633Z,29.27
2022-11-05T01:01:49.010Z,28.65
2022-11-05T01:04:17.892Z,29.48
2022-11-05T01:06:47.979Z,29.30
2022-11-05T01:09:18.313Z,27.67
2022-11-05T01:11:47.842Z,25.40
2022-11-05T01:14:17.007Z,26.73
2022-11-05T01:16:46.889Z,26.68
2022-11-05T01:19:15.695Z,31.48
2022-11-05T01:21:45.909Z,29.95
2022-11-05T01:24:15.530Z,29.18
2022-11-05T01:26:45.446Z,27.58
2022-11-05T01:29:14.052Z,28.42
2022-11-05T01:31:43.674Z,25.88
2022-11-05T01:34:13.139Z,29.50
2022-11-05T01:36:41.909Z,23.80
2022-11-05T01:39:10.686Z,25.65
2022-11-05T01:41:40.381Z,25.27
2022-11-05T01:44:52.009Z,26.23
2022-11-05T01:47:29.818Z,26.68
2022-11-05T01:50:04.212Z,26.60
2022-11-05T01:52:33.648Z,25.25
2022-11-05T01:55:06.794Z,25.30
2022-11-05T01:57:35.924Z,24.43
2022-11-05T02:00:07.152Z,22.95
2022-11-05T02:02:39.903Z,27.62
2022-11-05T02:05:11.428Z,27.10
2022-11-05T02:07:40.935Z,25.00
2022-11-05T02:10:13.913Z,27.30
2022-11-05T02:12:47.473Z,25.32
2022-11-05T02:15:48.781Z,26.75
2022-11-05T02:18:38.228Z,23.15
2022-11-05T02:21:27.534Z,28.32
2022-11-05T02:24:32.189Z,26.62
2022-11-05T02:27:16.361Z,28.38
2022-11-05T02:30:05.435Z,26.02
2022-11-05T02:33:00.594Z,26.55
2022-11-05T02:35:54.956Z,26.70
2022-11-05T02:38:41.965Z,25.00
2022-11-05T02:41:50.323Z,26.07
2022-11-05T02:44:33.871Z,27.17
2022-11-05T02:47:54.037Z,23.30
2022-11-05T02:50:40.012Z,26.30
2022-11-05T02:53:16.687Z,22.70
2022-11-05T02:55:58.498Z,22.37
2022-11-05T02:58:30.746Z,23.00
2022-11-05T03:01:02.949Z,25.72
2022-11-05T03:03:47.554Z,24.02
2022-11-05T03:06:54.041Z,25.55
2022-11-05T03:09:32.231Z,24.77
2022-11-05T03:15:33.626Z,23.83
2022-11-05T03:18:22.786Z,22.50
2022-11-05T03:21:02.930Z,25.45
2022-11-05T03:23:46.852Z,23.83
2022-11-05T03:26:35.932Z,19.27
2022-11-05T03:29:09.725Z,22.17
2022-11-05T03:31:39.505Z,18.75
2022-11-05T03:34:08.580Z,25.72
2022-11-05T03:36:41.893Z,20.92
2022-11-05T03:39:15.831Z,21.50
2022-11-05T03:41:45.327Z,20.82
2022-11-05T03:44:15.828Z,20.25
2022-11-05T03:46:49.894Z,18.75
2022-11-05T03:49:32.523Z,22.52
2022-11-05T03:52:19.828Z,22.02
2022-11-05T03:54:49.687Z,18.75
2022-11-05T03:57:25.926Z,18.75
2022-11-05T03:59:55.832Z,18.02
2022-11-05T04:02:26.219Z,22.27
2022-11-05T04:04:56.615Z,20.95
2022-11-05T04:07:45.183Z,16.73
2022-11-05T04:10:32.970Z,20.97
2022-11-05T04:13:21.625Z,25.77
2022-11-05T04:16:10.965Z,27.40
2022-11-05T04:18:39.990Z,22.05
2022-11-05T04:21:28.070Z,23.47
2022-11-05T04:24:09.649Z,21.82
2022-11-05T04:26:41.321Z,22.37
2022-11-05T04:29:29.131Z,20.35
2022-11-05T04:31:59.409Z,15.60
2022-11-05T04:34:30.179Z,13.95
2022-11-05T04:37:00.795Z,18.87
2022-11-05T04:39:29.568Z,17.35
2022-11-05T04:41:59.677Z,18.42
2022-11-05T04:44:28.707Z,19.73
2022-11-05T04:46:58.188Z,15.90
2022-11-05T04:49:30.215Z,16.55
2022-11-05T04:51:59.082Z,15.32
2022-11-05T04:54:28.068Z,15.25
2022-11-05T04:56:58.301Z,13.03
2022-11-05T04:59:27.241Z,14.00
2022-11-05T05:01:56.994Z,14.28
2022-11-05T05:04:26.233Z,12.75
2022-11-05T05:06:56.038Z,15.23
2022-11-05T05:09:24.954Z,16.00
2022-11-05T05:11:53.699Z,15.18
2022-11-05T05:14:22.828Z,15.48
2022-11-05T05:16:53.300Z,14.60
2022-11-05T05:19:25.919Z,17.15
2022-11-05T05:21:56.063Z,16.85
2022-11-05T05:24:25.211Z,16.23
2022-11-05T05:26:54.933Z,16.42
2022-11-05T05:29:25.956Z,18.92
2022-11-05T05:31:54.951Z,18.30
2022-11-05T05:34:24.226Z,17.35
2022-11-05T05:36:53.930Z,18.62
2022-11-05T05:39:24.264Z,20.95
2022-11-05T05:41:54.753Z,17.98
2022-11-05T05:44:23.693Z,20.52
2022-11-05T05:46:55.593Z,19.98
2022-11-05T05:49:24.515Z,20.75
2022-11-05T05:51:53.763Z,17.75
2022-11-05T05:54:26.397Z,19.70
2022-11-05T05:56:54.757Z,19.37
2022-11-05T05:59:23.874Z,16.75
2022-11-05T06:01:52.874Z,17.20
2022-11-05T06:04:22.777Z,18.45
2022-11-05T06:06:53.082Z,15.18
2022-11-05T06:09:21.777Z,16.52
2022-11-05T06:11:50.988Z,16.93
2022-11-05T06:14:20.188Z,15.28
2022-11-05T06:16:51.330Z,17.90
2022-11-05T06:19:21.061Z,17.73
2022-11-05T06:21:49.681Z,20.52
2022-11-05T06:24:18.371Z,21.30
2022-11-05T06:26:48.838Z,19.62
2022-11-05T06:29:18.347Z,18.92
2022-11-05T06:31:49.342Z,17.95
2022-11-05T06:34:19.638Z,17.80
2022-11-05T06:36:48.658Z,19.35
2022-11-05T06:39:18.457Z,17.32
2022-11-05T06:44:19.336Z,18.52
2022-11-05T06:46:49.575Z,19.48
2022-11-05T06:49:18.608Z,20.12
2022-11-05T06:51:47.426Z,20.80
2022-11-05T06:54:16.744Z,20.35
2022-11-05T06:56:46.874Z,19.73
2022-11-05T06:59:16.862Z,20.45
2022-11-05T07:01:47.123Z,19.67
2022-11-05T07:04:16.899Z,22.02
2022-11-05T07:06:48.253Z,19.75
2022-11-05T07:09:18.457Z,18.95
2022-11-05T07:11:47.937Z,17.20
2022-11-05T07:14:17.476Z,18.57
2022-11-05T07:16:46.994Z,17.52
2022-11-05T07:19:16.180Z,18.67
2022-11-05T07:21:45.693Z,19.87
2022-11-05T07:24:15.903Z,19.30
2022-11-05T07:26:44.642Z,18.37
2022-11-05T07:29:14.615Z,20.12
2022-11-05T07:31:43.879Z,18.02
2022-11-05T07:34:13.243Z,17.73
2022-11-05T07:36:41.902Z,19.30
2022-11-05T07:39:11.710Z,20.32
2022-11-05T07:41:40.353Z,19.70
2022-11-05T07:44:11.471Z,17.82
2022-11-05T07:46:42.188Z,22.40
2022-11-05T07:49:11.481Z,20.45
2022-11-05T07:51:40.530Z,20.90
2022-11-05T07:54:11.894Z,23.62
2022-11-05T07:56:41.978Z,19.98
2022-11-05T07:59:11.447Z,19.45
2022-11-05T08:01:40.435Z,21.85
2022-11-05T08:04:09.493Z,22.52
2022-11-05T08:06:40.370Z,21.95
2022-11-05T08:09:11.536Z,21.75
2022-11-05T08:11:41.287Z,22.87
2022-11-05T08:14:10.111Z,20.85
2022-11-05T08:16:39.337Z,21.37
2022-11-05T08:19:12.661Z,20.82
2022-11-05T08:21:42.664Z,23.87
2022-11-05T08:24:11.880Z,19.85
2022-11-05T08:26:41.076Z,18.27
2022-11-05T08:29:10.705Z,18.73
2022-11-05T08:31:39.965Z,18.87
2022-11-05T08:34:09.277Z,20.10
2022-11-05T08:36:40.972Z,18.65
2022-11-05T08:39:15.847Z,16.35
2022-11-05T08:41:42.102Z,18.20
2022-11-05T08:44:12.621Z,19.37
2022-11-05T08:46:41.905Z,18.70
2022-11-05T08:49:11.854Z,19.77
2022-11-05T08:51:44.748Z,18.27
2022-11-05T08:54:14.324Z,18.75
2022-11-05T08:56:45.447Z,20.30
2022-11-05T08:59:15.015Z,20.12
2022-11-05T09:01:45.006Z,19.73
2022-11-05T09:04:14.047Z,21.30
2022-11-05T09:06:42.959Z,20.52
2022-11-05T09:09:13.365Z,19.70
2022-11-05T09:12:10.492Z,24.50
2022-11-05T09:14:15.449Z,21.20
2022-11-05T09:16:44.218Z,26.25
2022-11-05T09:19:14.019Z,25.88
2022-11-05T09:21:43.731Z,21.17
2022-11-05T09:24:12.780Z,18.98
2022-11-05T09:26:43.030Z,19.82
2022-11-05T09:29:14.512Z,23.15
2022-11-05T09:31:42.747Z,20.25
2022-11-05T09:34:12.290Z,22.62
2022-11-05T09:36:42.550Z,19.17
2022-11-05T09:39:14.661Z,22.62
2022-11-05T09:41:44.370Z,24.47
2022-11-05T09:44:20.316Z,20.95
2022-11-05T09:46:59.964Z,24.50
2022-11-05T09:49:39.745Z,21.07
2022-11-05T09:52:30.684Z,24.18
2022-11-05T09:55:00.645Z,22.70
2022-11-05T09:57:47.189Z,21.45
2022-11-05T10:00:17.141Z,22.77
2022-11-05T10:02:59.627Z,22.52
2022-11-05T10:05:28.928Z,20.55
2022-11-05T10:08:09.930Z,19.60
2022-11-05T10:10:46.050Z,22.10
2022-11-05T10:13:37.262Z,20.88
2022-11-05T10:16:30.507Z,20.52
2022-11-05T10:19:19.254Z,18.42
2022-11-05T10:24:20.784Z,20.08
2022-11-05T10:26:53.697Z,20.50
2022-11-05T10:29:29.580Z,17.27
2022-11-05T10:31:59.145Z,22.50
2022-11-05T10:34:32.757Z,17.82
2022-11-05T10:37:02.277Z,20.97
2022-11-05T10:39:32.527Z,21.17
2022-11-05T10:42:26.655Z,17.35
2022-11-05T10:45:20.487Z,19.98
2022-11-05T10:48:07.610Z,20.48
2022-11-05T10:50:36.726Z,21.73
2022-11-05T10:53:15.466Z,19.17
2022-11-05T10:55:49.695Z,18.05
2022-11-05T10:58:38.781Z,23.52
2022-11-05T11:01:11.775Z,21.80
2022-11-05T11:03:52.790Z,20.27
2022-11-05T11:06:27.763Z,22.17
2022-11-05T11:09:02.068Z,18.15
2022-11-05T11:11:41.790Z,21.82
2022-11-05T11:14:17.742Z,20.45
2022-11-05T11:16:50.141Z,19.00
2022-11-05T11:19:36.088Z,19.35
2022-11-05T11:22:11.136Z,20.55
2022-11-05T11:24:53.319Z,18.12
2022-11-05T11:27:28.965Z,19.05
2022-11-05T11:30:03.921Z,22.27
2022-11-05T11:32:36.508Z,20.55
2022-11-05T11:35:13.480Z,19.55
2022-11-05T11:37:48.071Z,18.52
2022-11-05T11:40:21.590Z,21.27
2022-11-05T11:42:55.731Z,20.02
2022-11-05T11:45:35.473Z,21.35
2022-11-05T11:48:10.097Z,17.48
2022-11-05T11:50:42.719Z,18.57
2022-11-05T11:53:33.458Z,18.45
2022-11-05T11:56:08.983Z,22.82
2022-11-05T11:58:45.947Z,20.48
2022-11-05T12:01:47.964Z,20.45
2022-11-05T12:04:36.347Z,21.52
2022-11-05T12:07:19.083Z,20.32
2022-11-05T12:10:13.661Z,23.32
2022-11-05T12:13:00.246Z,21.42
2022-11-05T12:15:57.658Z,21.37
2022-11-05T12:18:49.757Z,23.57
2022-11-05T12:21:52.145Z,24.27
2022-11-05T12:24:21.377Z,30.25
2022-11-05T12:27:11.072Z,26.45
2022-11-05T12:29:55.132Z,23.10
2022-11-05T12:32:38.191Z,28.23
2022-11-05T12:35:36.724Z,26.33
2022-11-05T12:38:23.042Z,25.52
2022-11-05T12:41:27.227Z,24.70
2022-11-05T12:44:26.970Z,28.95
2022-11-05T12:47:22.640Z,24.65
2022-11-05T12:50:13.192Z,27.27
2022-11-05T12:52:55.280Z,26.80
2022-11-05T12:55:31.031Z,28.23
2022-11-05T12:58:11.100Z,26.57
2022-11-05T13:00:44.265Z,23.90
2022-11-05T13:03:21.471Z,21.23
2022-11-05T13:06:00.273Z,25.72
2022-11-05T13:09:04.255Z,35.08
2022-11-05T13:11:54.054Z,28.30
2022-11-05T13:14:47.253Z,28.27
2022-11-05T13:17:29.541Z,31.15
2022-11-05T13:20:17.498Z,32.33
2022-11-05T13:22:51.666Z,32.60
2022-11-05T13:25:28.569Z,27.48
2022-11-05T13:28:21.077Z,24.85
2022-11-05T13:30:56.412Z,25.48
2022-11-05T13:33:36.136Z,32.45
2022-11-05T13:36:35.371Z,30.95
2022-11-05T13:39:18.575Z,25.20
2022-11-05T13:42:16.095Z,28.45
2022-11-05T13:44:57.645Z,29.82
2022-11-05T13:48:07.623Z,31.30
2022-11-05T13:51:13.316Z,26.65
2022-11-05T13:54:19.105Z,27.05
2022-11-05T13:57:05.555Z,27.02
2022-11-05T13:59:46.026Z,30.30
2022-11-05T14:02:25.647Z,27.42
2022-11-05T14:05:01.036Z,25.97
2022-11-05T14:07:34.370Z,26.23
2022-11-05T14:13:06.024Z,29.23
2022-11-05T14:15:35.540Z,29.40
2022-11-05T14:18:41.002Z,22.73
2022-11-05T14:21:36.056Z,28.90
2022-11-05T14:24:30.097Z,28.98
2022-11-05T14:27:06.747Z,25.60
2022-11-05T14:29:47.226Z,25.32
2022-11-05T14:32:24.240Z,21.82
2022-11-05T14:35:21.576Z,24.12
2022-11-05T14:37:58.805Z,22.98
2022-11-05T14:40:44.010Z,25.50
2022-11-05T14:43:20.542Z,28.27
2022-11-05T14:46:00.459Z,23.62
2022-11-05T14:48:56.336Z,31.80
2022-11-05T14:51:42.398Z,32.73
2022-11-05T14:54:31.425Z,28.32
2022-11-05T14:57:02.230Z,31.90
2022-11-05T14:59:35.135Z,32.38
2022-11-05T15:02:30.389Z,32.30
2022-11-05T15:05:50.994Z,32.67
2022-11-05T15:08:40.767Z,31.50
2022-11-05T15:11:16.130Z,32.55
2022-11-05T15:14:00.450Z,32.60
2022-11-05T15:16:44.997Z,29.45
2022-11-05T15:19:33.150Z,29.25
2022-11-05T15:22:06.104Z,32.38
2022-11-05T15:24:35.632Z,28.02
2022-11-05T15:27:16.601Z,31.07
2022-11-05T15:29:45.622Z,25.60
2022-11-05T15:32:19.374Z,28.05
2022-11-05T15:34:53.149Z,23.05
2022-11-05T15:37:25.238Z,23.50
2022-11-05T15:39:56.537Z,25.97
2022-11-05T15:42:27.556Z,23.65
2022-11-05T15:44:58.172Z,21.37
2022-11-05T15:47:30.327Z,24.70
2022-11-05T15:50:03.259Z,22.42
2022-11-05T15:52:37.057Z,26.23
2022-11-05T15:55:22.990Z,24.87
2022-11-05T15:58:06.724Z,23.77
2022-11-05T16:00:37.181Z,22.60
2022-11-05T16:03:28.210Z,23.07
2022-11-05T16:05:57.206Z,24.10
2022-11-05T16:08:28.535Z,24.10
2022-11-05T16:11:02.986Z,26.00
2022-11-05T16:13:40.867Z,29.85
2022-11-05T16:16:21.588Z,34.67
2022-11-05T16:18:51.292Z,29.07
2022-11-05T16:21:22.731Z,28.85
2022-11-05T16:23:58.324Z,29.85
2022-11-05T16:29:22.895Z,31.62
2022-11-05T16:31:54.240Z,31.37
2022-11-05T16:34:34.077Z,36.38
2022-11-05T16:37:04.015Z,36.90
2022-11-05T16:39:33.567Z,36.70
2022-11-05T16:42:05.030Z,35.68
2022-11-05T16:44:33.989Z,38.17
2022-11-05T16:47:02.732Z,37.10
2022-11-05T16:49:34.263Z,39.27
2022-11-05T16:52:11.416Z,41.45
2022-11-05T16:54:40.591Z,40.75
2022-11-05T16:57:27.320Z,41.02
2022-11-05T16:59:57.897Z,42.43
2022-11-05T17:02:28.116Z,42.70
2022-11-05T17:04:58.071Z,40.83
2022-11-05T17:07:26.856Z,41.92
2022-11-05T17:09:57.053Z,44.98
2022-11-05T17:12:26.421Z,47.45
2022-11-05T17:14:57.610Z,44.03
2022-11-05T17:17:27.508Z,41.30
2022-11-05T17:19:56.324Z,40.95
2022-11-05T17:22:24.988Z,42.23
2022-11-05T17:24:54.238Z,37.05
2022-11-05T17:27:23.058Z,40.03
2022-11-05T17:29:52.788Z,39.75
2022-11-05T17:32:22.495Z,36.28
2022-11-05T17:34:53.797Z,42.27
2022-11-05T17:37:22.998Z,38.02
2022-11-05T17:39:52.630Z,41.30
2022-11-05T17:42:22.589Z,35.38
2022-11-05T17:44:51.369Z,30.85
2022-11-05T17:47:20.287Z,30.55
2022-11-05T17:49:49.274Z,30.52
2022-11-05T17:52:18.803Z,32.58
2022-11-05T17:54:47.747Z,30.50
2022-11-05T17:57:18.018Z,35.10
2022-11-05T17:59:47.240Z,35.63
2022-11-05T18:02:16.151Z,31.87
2022-11-05T18:04:45.442Z,43.13
2022-11-05T18:07:15.063Z,33.15
2022-11-05T18:09:44.914Z,30.40
2022-11-05T18:12:14.109Z,32.67
2022-11-05T18:14:43.316Z,33.18
2022-11-05T18:17:15.372Z,29.00
2022-11-05T18:19:47.262Z,29.30
2022-11-05T18:22:19.473Z,29.23
2022-11-05T18:24:50.517Z,28.40
2022-11-05T18:27:24.009Z,29.00
2022-11-05T18:29:54.331Z,25.43
2022-11-05T18:32:23.704Z,27.65
2022-11-05T18:34:54.673Z,27.15
2022-11-05T18:37:27.329Z,29.80
2022-11-05T18:39:57.412Z,26.48
2022-11-05T18:42:26.198Z,26.82
2022-11-05T18:44:56.242Z,26.60
2022-11-05T18:47:27.096Z,26.23
2022-11-05T18:49:58.138Z,22.42
2022-11-05T18:52:28.567Z,25.05
2022-11-05T18:54:58.977Z,25.85
2022-11-05T18:57:28.091Z,24.50
2022-11-05T18:59:59.443Z,26.10
2022-11-05T19:02:28.456Z,24.45
2022-11-05T19:07:29.369Z,25.02
2022-11-05T19:09:59.211Z,25.97
2022-11-05T19:12:28.982Z,30.23
2022-11-05T19:15:02.383Z,26.23
2022-11-05T19:17:32.101Z,28.38
2022-11-05T19:20:01.647Z,26.23
2022-11-05T19:22:32.570Z,28.27
2022-11-05T19:25:01.892Z,27.45
2022-11-05T19:27:31.746Z,24.65
2022-11-05T19:30:01.377Z,27.22
2022-11-05T19:32:33.085Z,28.47
2022-11-05T19:35:03.029Z,24.98
2022-11-05T19:37:32.212Z,25.48
2022-11-05T19:40:01.191Z,29.67
2022-11-05T19:42:31.603Z,28.25
2022-11-05T19:45:23.137Z,27.50
2022-11-05T19:47:31.678Z,29.85
2022-11-05T19:50:01.030Z,25.95
2022-11-05T19:52:31.222Z,26.50
2022-11-05T19:55:00.866Z,24.95
2022-11-05T19:57:30.159Z,28.10
2022-11-05T20:00:00.521Z,27.32
2022-11-05T20:02:30.278Z,27.15
2022-11-05T20:04:59.177Z,27.02
2022-11-05T20:07:29.447Z,27.87
2022-11-05T20:09:59.412Z,25.92
2022-11-05T20:12:30.117Z,28.32
2022-11-05T20:14:59.128Z,27.55
2022-11-05T20:17:29.701Z,25.82
2022-11-05T20:19:58.820Z,29.18
2022-11-05T20:22:28.541Z,28.00
2022-11-05T20:24:58.046Z,28.32
2022-11-05T20:27:27.107Z,25.50
2022-11-05T20:29:56.860Z,29.12
2022-11-05T20:32:28.891Z,32.98
2022-11-05T20:34:58.897Z,23.12
2022-11-05T20:37:29.573Z,28.98
2022-11-05T20:39:58.652Z,30.60
2022-11-05T20:42:28.300Z,26.90
2022-11-05T20:45:00.245Z,28.35
2022-11-05T20:47:31.105Z,28.50
2022-11-05T20:50:01.033Z,29.63
2022-11-05T20:52:31.791Z,38.00
2022-11-05T20:55:07.184Z,33.80
2022-11-05T20:57:38.330Z,32.98
2022-11-05T21:00:09.113Z,32.58
2022-11-05T21:02:39.471Z,34.13
2022-11-05T21:05:12.114Z,33.63
2022-11-05T21:07:42.493Z,32.73
2022-11-05T21:10:15.363Z,32.93
2022-11-05T21:12:44.674Z,35.38
2022-11-05T21:15:14.819Z,37.73
2022-11-05T21:17:45.143Z,34.85
2022-11-05T21:20:13.971Z,34.58
2022-11-05T21:22:45.741Z,29.72
2022-11-05T21:25:14.646Z,34.23
2022-11-05T21:27:43.943Z,40.43
2022-11-05T21:30:14.780Z,33.78
2022-11-05T21:32:47.011Z,36.55
2022-11-05T21:35:18.153Z,29.55
2022-11-05T21:37:47.657Z,35.90
2022-11-05T21:40:17.417Z,35.30
2022-11-05T21:42:49.371Z,39.35
2022-11-05T21:45:20.052Z,37.20
2022-11-05T21:47:50.751Z,36.65
2022-11-05T21:50:22.229Z,35.63
2022-11-05T21:53:10.017Z,34.80
2022-11-05T21:56:00.641Z,33.95
2022-11-05T21:58:35.111Z,38.00
2022-11-05T22:01:04.971Z,38.63
2022-11-05T22:03:33.862Z,33.13
2022-11-05T22:06:05.507Z,37.30
2022-11-05T22:08:35.554Z,36.28
2022-11-05T22:11:06.414Z,36.00
2022-11-05T22:13:36.783Z,39.73
2022-11-05T22:16:07.869Z,37.88
2022-11-05T22:18:37.041Z,34.55
2022-11-05T22:21:07.023Z,37.83
2022-11-05T22:23:35.962Z,36.73
2022-11-05T22:26:06.495Z,37.10
2022-11-05T22:28:36.658Z,35.58
2022-11-05T22:31:14.644Z,36.40
2022-11-05T22:33:45.030Z,36.50
2022-11-05T22:36:13.800Z,35.75
2022-11-05T22:38:44.057Z,36.88
2022-11-05T22:41:18.936Z,34.33
2022-11-05T22:43:50.104Z,35.45
2022-11-05T22:46:24.781Z,35.90
2022-11-05T22:48:54.200Z,36.42
2022-11-05T22:51:27.804Z,38.65
2022-11-05T22:53:56.811Z,38.00
2022-11-05T22:56:30.659Z,33.55
2022-11-05T22:59:00.241Z,32.90
2022-11-05T23:01:29.477Z,34.80
2022-11-05T23:03:59.426Z,35.40
2022-11-05T23:06:50.643Z,33.48
2022-11-05T23:09:42.240Z,35.78
2022-11-05T23:12:37.914Z,35.43
2022-11-05T23:15:08.473Z,38.67
2022-11-05T23:17:56.132Z,36.25
2022-11-05T23:20:35.154Z,36.33
2022-11-05T23:23:22.607Z,39.40
2022-11-05T23:28:22.997Z,33.05
2022-11-05T23:31:11.676Z,36.53
2022-11-05T23:33:41.409Z,34.05
2022-11-05T23:36:30.961Z,35.33
2022-11-05T23:39:01.476Z,31.75
2022-11-05T23:41:50.111Z,34.55
2022-11-05T23:44:39.809Z,35.40
2022-11-05T23:47:27.390Z,33.45
2022-11-05T23:49:56.681Z,36.30
2022-11-05T23:52:26.298Z,35.60
2022-11-05T23:54:56.350Z,33.75
2022-11-05T23:57:25.670Z,36.33
2022-11-05T23:59:54.724Z,38.88
